Time;durP1;ratioP1;P1;durP2;ratioP2;P2;SDS_P1;SDS_P2;PMS_P1;PMS_P2;Temp;Humidity;BMP_temperature;BMP_pressure;BME280_temperature;BME280_humidity;BME280_pressure;Samples;Min_cycle;Max_cycle;Signal;HPM_P1;HPM_P2
2023/11/18 00:01:15;;;;;;;0.10;0.10;;;4.40;99.90;;;;;;5058854;28;20696;-78
2023/11/18 00:03:40;;;;;;;0.00;0.00;;;4.30;99.90;;;;;;5059162;28;20186;-78
2023/11/18 00:06:07;;;;;;;0.00;0.00;;;4.20;99.90;;;;;;5061653;28;20196;-78
2023/11/18 00:08:33;;;;;;;0.10;0.10;;;4.20;99.90;;;;;;5058893;28;20201;-78
2023/11/18 00:10:59;;;;;;;0.10;0.10;;;4.20;99.90;;;;;;5058862;28;20258;-78
2023/11/18 00:13:26;;;;;;;0.10;0.10;;;4.20;99.90;;;;;;5056807;28;20193;-78
2023/11/18 00:15:52;;;;;;;0.10;0.10;;;4.30;99.90;;;;;;5059225;28;20196;-78
2023/11/18 00:18:18;;;;;;;0.00;0.00;;;4.30;99.90;;;;;;5059661;28;20208;-77
2023/11/18 00:20:44;;;;;;;0.10;0.10;;;4.40;99.90;;;;;;5057820;28;20181;-77
2023/11/18 00:23:11;;;;;;;0.00;0.00;;;4.50;99.90;;;;;;5058951;28;20221;-77
2023/11/18 00:25:39;;;;;;;0.10;0.10;;;4.50;99.90;;;;;;5061529;28;20176;-78
2023/11/18 00:28:07;;;;;;;0.10;0.10;;;4.60;99.90;;;;;;5059203;28;20205;-78
2023/11/18 00:30:35;;;;;;;0.10;0.10;;;4.60;99.90;;;;;;5060573;28;20181;-78
2023/11/18 00:33:01;;;;;;;0.10;0.10;;;4.60;99.90;;;;;;5062612;28;20181;-78
2023/11/18 00:35:26;;;;;;;0.10;0.10;;;4.40;99.90;;;;;;5059982;28;20186;-78
2023/11/18 00:37:52;;;;;;;0.00;0.00;;;4.20;99.90;;;;;;5060109;28;20243;-78
2023/11/18 00:40:20;;;;;;;0.10;0.10;;;4.00;99.90;;;;;;5059589;28;20209;-78
2023/11/18 00:42:45;;;;;;;0.10;0.10;;;3.90;99.90;;;;;;5058080;28;20186;-79
2023/11/18 00:45:12;;;;;;;0.10;0.10;;;3.90;99.90;;;;;;5065062;28;20261;-78
2023/11/18 00:47:41;;;;;;;0.10;0.10;;;3.80;99.90;;;;;;5065775;28;20235;-78
2023/11/18 00:50:08;;;;;;;0.10;0.10;;;3.80;99.90;;;;;;5060306;28;20193;-79
2023/11/18 00:52:34;;;;;;;0.00;0.00;;;3.70;99.90;;;;;;5061488;28;20199;-79
2023/11/18 00:55:00;;;;;;;0.10;0.10;;;3.60;99.90;;;;;;5059623;28;20615;-78
2023/11/18 00:57:26;;;;;;;0.10;0.10;;;3.50;99.90;;;;;;5059680;28;20224;-79
2023/11/18 00:59:51;;;;;;;0.10;0.10;;;3.60;99.90;;;;;;5058240;28;20566;-79
2023/11/18 01:02:18;;;;;;;0.10;0.10;;;3.70;99.90;;;;;;5058460;28;20193;-78
2023/11/18 01:04:45;;;;;;;0.00;0.00;;;3.80;99.90;;;;;;5059501;28;20361;-79
2023/11/18 01:07:12;;;;;;;0.10;0.10;;;3.90;99.90;;;;;;5057794;28;20263;-79
2023/11/18 01:09:38;;;;;;;0.00;0.00;;;3.90;99.90;;;;;;5058016;28;20185;-78
2023/11/18 01:12:05;;;;;;;0.00;0.00;;;4.10;99.90;;;;;;5062696;28;20184;-79
2023/11/18 01:14:31;;;;;;;0.03;0.03;;;4.10;99.90;;;;;;5056061;28;20616;-78
2023/11/18 01:16:56;;;;;;;0.10;0.10;;;4.20;99.90;;;;;;5057685;28;20237;-78
2023/11/18 01:19:23;;;;;;;0.00;0.00;;;4.20;99.90;;;;;;5057136;28;20211;-78
2023/11/18 01:21:49;;;;;;;0.10;0.10;;;4.10;99.90;;;;;;5058128;28;20185;-78
2023/11/18 01:24:16;;;;;;;0.10;0.10;;;4.10;99.90;;;;;;5058103;28;20195;-78
2023/11/18 01:26:41;;;;;;;0.10;0.10;;;4.00;99.90;;;;;;5052898;28;20196;-78
2023/11/18 01:29:07;;;;;;;0.10;0.10;;;3.80;99.90;;;;;;5054884;28;20185;-79
2023/11/18 01:31:33;;;;;;;0.10;0.10;;;3.60;99.90;;;;;;5054271;28;20231;-79
2023/11/18 01:33:59;;;;;;;0.10;0.10;;;3.60;99.90;;;;;;5050206;28;20194;-79
2023/11/18 01:36:25;;;;;;;0.00;0.00;;;3.50;99.90;;;;;;5053818;28;20195;-79
2023/11/18 01:38:50;;;;;;;0.10;0.10;;;3.50;99.90;;;;;;5053743;28;20786;-78
2023/11/18 01:41:16;;;;;;;0.00;0.00;;;3.50;99.90;;;;;;5051907;28;20174;-78
2023/11/18 01:43:46;;;;;;;0.00;0.00;;;3.50;99.90;;;;;;5057926;28;20186;-79
2023/11/18 01:46:12;;;;;;;0.10;0.10;;;3.40;99.90;;;;;;5055812;28;20178;-79
2023/11/18 01:48:41;;;;;;;0.10;0.10;;;3.30;99.90;;;;;;5057071;28;20271;-79
2023/11/18 01:51:10;;;;;;;3.17;3.07;;;3.20;99.90;;;;;;5057135;28;20186;-78
2023/11/18 01:53:37;;;;;;;0.00;0.00;;;3.20;99.90;;;;;;5057466;28;20186;-78
2023/11/18 01:56:05;;;;;;;0.10;0.10;;;3.10;99.90;;;;;;5061711;28;20201;-78
2023/11/18 01:58:31;;;;;;;0.10;0.10;;;3.10;99.90;;;;;;5057510;28;20255;-77
2023/11/18 02:00:57;;;;;;;0.10;0.10;;;3.00;99.90;;;;;;5063012;28;20191;-77
2023/11/18 02:03:23;;;;;;;0.00;0.00;;;3.00;99.90;;;;;;5063243;28;20189;-78
2023/11/18 02:05:48;;;;;;;0.03;0.03;;;3.10;99.90;;;;;;5060516;28;20235;-78
2023/11/18 02:08:14;;;;;;;0.00;0.00;;;3.20;99.90;;;;;;5063292;28;20541;-78
2023/11/18 02:10:50;;;;;;;0.10;0.10;;;3.30;99.90;;;;;;5060533;28;20197;-78
2023/11/18 02:13:32;;;;;;;0.10;0.10;;;3.50;99.90;;;;;;5060354;28;20188;-78
2023/11/18 02:15:59;;;;;;;0.10;0.10;;;3.60;99.90;;;;;;5062009;28;20249;-79
2023/11/18 02:18:30;;;;;;;0.10;0.10;;;3.70;99.90;;;;;;5061653;28;20217;-79
2023/11/18 02:20:59;;;;;;;0.00;0.00;;;3.80;99.90;;;;;;5058244;28;20185;-78
2023/11/18 02:23:26;;;;;;;0.10;0.10;;;3.90;99.90;;;;;;5060792;28;20182;-77
2023/11/18 02:25:52;;;;;;;0.10;0.10;;;4.00;99.90;;;;;;5057974;28;20628;-78
2023/11/18 02:28:18;;;;;;;0.07;0.07;;;4.00;99.90;;;;;;5060046;28;20223;-79
2023/11/18 02:30:45;;;;;;;0.10;0.10;;;4.10;99.90;;;;;;5060219;28;20189;-78
2023/11/18 02:33:28;;;;;;;0.10;0.10;;;4.10;99.90;;;;;;5057888;28;20231;-79
2023/11/18 02:36:05;;;;;;;0.10;0.10;;;4.20;99.90;;;;;;5054990;28;20230;-79
2023/11/18 02:38:32;;;;;;;0.07;0.07;;;4.10;99.90;;;;;;5060204;28;20245;-79
2023/11/18 02:41:01;;;;;;;0.00;0.00;;;3.70;99.90;;;;;;5057666;28;20178;-79
2023/11/18 02:43:28;;;;;;;0.10;0.10;;;3.50;99.90;;;;;;5058039;28;20177;-78
2023/11/18 02:45:56;;;;;;;0.07;0.07;;;3.60;99.90;;;;;;5055842;28;20188;-79
2023/11/18 02:48:22;;;;;;;0.00;0.00;;;3.60;99.90;;;;;;5057771;28;20206;-78
2023/11/18 02:50:48;;;;;;;0.10;0.10;;;3.30;99.90;;;;;;5055039;28;20247;-78
2023/11/18 02:53:14;;;;;;;0.10;0.10;;;3.20;99.90;;;;;;5059160;28;20181;-79
2023/11/18 02:55:40;;;;;;;0.10;0.10;;;3.30;99.90;;;;;;5059207;28;20197;-79
2023/11/18 02:58:07;;;;;;;0.00;0.00;;;3.20;99.90;;;;;;5057525;28;20224;-77
2023/11/18 03:00:35;;;;;;;0.07;0.07;;;3.10;99.90;;;;;;5058470;28;20632;-78
2023/11/18 03:03:02;;;;;;;0.10;0.10;;;3.10;99.90;;;;;;5059801;28;20252;-78
2023/11/18 03:05:28;;;;;;;0.00;0.00;;;3.20;99.90;;;;;;5058921;28;20186;-78
2023/11/18 03:07:57;;;;;;;0.10;0.10;;;3.10;99.90;;;;;;5057738;28;20200;-78
2023/11/18 03:10:23;;;;;;;0.10;0.10;;;3.10;99.90;;;;;;5057585;28;20181;-79
2023/11/18 03:12:50;;;;;;;0.10;0.10;;;3.10;99.90;;;;;;5057049;28;20203;-79
2023/11/18 03:15:16;;;;;;;0.00;0.00;;;3.00;99.90;;;;;;5060342;28;20212;-78
2023/11/18 03:17:48;;;;;;;0.10;0.10;;;2.90;99.90;;;;;;5058898;28;20211;-79
2023/11/18 03:20:16;;;;;;;0.00;0.00;;;2.90;99.90;;;;;;5060168;28;20231;-78
2023/11/18 03:22:43;;;;;;;0.00;0.00;;;2.90;99.90;;;;;;5057318;28;20652;-79
2023/11/18 03:25:09;;;;;;;0.00;0.00;;;2.80;99.90;;;;;;5057082;28;20201;-78
2023/11/18 03:27:35;;;;;;;0.10;0.10;;;2.70;99.90;;;;;;5055577;28;20651;-78
2023/11/18 03:30:00;;;;;;;0.00;0.00;;;2.90;99.90;;;;;;5057602;28;20188;-78
2023/11/18 03:32:26;;;;;;;0.10;0.10;;;3.10;99.90;;;;;;5057253;28;20231;-78
2023/11/18 03:34:51;;;;;;;0.10;0.10;;;3.20;99.90;;;;;;5056800;28;20189;-79
2023/11/18 03:37:17;;;;;;;0.10;0.10;;;3.40;99.90;;;;;;5055290;28;20279;-78
2023/11/18 03:39:42;;;;;;;0.10;0.10;;;3.40;99.90;;;;;;5053410;28;20258;-79
2023/11/18 03:42:08;;;;;;;0.10;0.10;;;3.30;99.90;;;;;;5055444;28;20190;-78
2023/11/18 03:44:33;;;;;;;0.10;0.10;;;3.10;99.90;;;;;;5058312;28;20187;-78
2023/11/18 03:46:59;;;;;;;0.00;0.00;;;3.00;99.90;;;;;;5055429;28;20283;-78
2023/11/18 03:49:25;;;;;;;0.10;0.10;;;3.10;99.90;;;;;;5055334;28;20657;-78
2023/11/18 03:51:50;;;;;;;0.10;0.10;;;3.30;99.90;;;;;;5056194;28;20271;-78
2023/11/18 03:54:16;;;;;;;0.00;0.00;;;3.20;99.90;;;;;;5059381;28;20277;-78
2023/11/18 03:56:41;;;;;;;0.00;0.00;;;3.40;99.90;;;;;;5060311;28;20184;-78
2023/11/18 03:59:07;;;;;;;0.03;0.03;;;3.60;99.90;;;;;;5058755;28;20227;-78
2023/11/18 04:01:32;;;;;;;0.10;0.10;;;3.60;99.90;;;;;;5057473;28;20192;-78
2023/11/18 04:03:58;;;;;;;0.10;0.10;;;3.70;99.90;;;;;;5060420;28;20190;-78
2023/11/18 04:06:24;;;;;;;0.10;0.10;;;3.90;99.90;;;;;;5060347;28;20185;-79
2023/11/18 04:08:50;;;;;;;0.00;0.00;;;3.90;99.90;;;;;;5056658;28;20204;-79
2023/11/18 04:11:16;;;;;;;0.10;0.10;;;3.80;99.90;;;;;;5059858;28;20194;-78
2023/11/18 04:13:42;;;;;;;0.10;0.10;;;3.60;99.90;;;;;;5055304;28;20379;-79
2023/11/18 04:16:17;;;;;;;0.10;0.10;;;3.50;99.90;;;;;;5057613;28;20742;-79
2023/11/18 04:18:44;;;;;;;0.10;0.10;;;3.30;99.90;;;;;;5057053;28;20283;-78
2023/11/18 04:21:11;;;;;;;0.00;0.00;;;3.20;99.90;;;;;;5055753;28;20185;-79
2023/11/18 04:23:37;;;;;;;0.10;0.10;;;3.40;99.90;;;;;;5057543;28;20255;-78
2023/11/18 04:26:04;;;;;;;0.00;0.00;;;3.50;99.90;;;;;;5056758;28;20183;-78
2023/11/18 04:28:29;;;;;;;0.00;0.00;;;3.60;99.90;;;;;;5057148;28;20684;-78
2023/11/18 04:30:55;;;;;;;0.03;0.03;;;3.60;99.90;;;;;;5055415;28;20188;-79
2023/11/18 04:33:21;;;;;;;0.00;0.00;;;3.60;99.90;;;;;;5057004;28;20654;-78
2023/11/18 04:35:47;;;;;;;0.10;0.10;;;3.70;99.90;;;;;;5055968;28;20668;-79
2023/11/18 04:38:12;;;;;;;0.00;0.00;;;3.70;99.90;;;;;;5057042;28;20216;-79
2023/11/18 04:40:40;;;;;;;0.00;0.00;;;3.60;99.90;;;;;;5057760;28;20260;-79
2023/11/18 04:43:06;;;;;;;0.10;0.10;;;3.80;99.90;;;;;;5057147;28;20273;-79
2023/11/18 04:45:32;;;;;;;0.10;0.10;;;3.90;99.90;;;;;;5057719;28;20268;-79
2023/11/18 04:47:59;;;;;;;0.10;0.10;;;4.00;99.90;;;;;;5055108;28;20575;-79
2023/11/18 04:50:24;;;;;;;0.10;0.10;;;4.10;99.90;;;;;;5057685;28;20189;-79
2023/11/18 04:52:50;;;;;;;0.00;0.00;;;4.20;99.90;;;;;;5056640;28;20188;-78
2023/11/18 04:55:15;;;;;;;0.00;0.00;;;4.30;99.90;;;;;;5056724;28;20195;-79
2023/11/18 04:57:41;;;;;;;0.10;0.10;;;4.20;99.90;;;;;;5059080;28;20226;-78
2023/11/18 05:00:11;;;;;;;0.10;0.10;;;4.00;99.90;;;;;;5054921;28;20182;-78
2023/11/18 05:02:38;;;;;;;0.10;0.10;;;3.90;99.90;;;;;;5055511;28;20535;-79
2023/11/18 05:05:06;;;;;;;0.00;0.00;;;3.80;99.90;;;;;;5059504;28;20185;-77
2023/11/18 05:07:31;;;;;;;0.07;0.07;;;3.60;99.90;;;;;;5057425;28;20216;-79
2023/11/18 05:09:57;;;;;;;0.10;0.10;;;3.60;99.90;;;;;;5058156;28;20729;-79
2023/11/18 05:12:23;;;;;;;0.10;0.10;;;3.70;99.90;;;;;;5054825;28;20200;-78
2023/11/18 05:14:49;;;;;;;0.10;0.10;;;3.80;99.90;;;;;;5055188;28;20200;-78
2023/11/18 05:17:15;;;;;;;0.00;0.00;;;3.90;99.90;;;;;;5056609;28;20260;-79
2023/11/18 05:19:42;;;;;;;0.10;0.10;;;4.10;99.90;;;;;;5058695;28;20262;-78
2023/11/18 05:22:08;;;;;;;0.10;0.10;;;4.10;99.90;;;;;;5055292;28;20204;-79
2023/11/18 05:24:33;;;;;;;0.00;0.00;;;4.00;99.90;;;;;;5055177;28;20816;-78
2023/11/18 05:27:01;;;;;;;0.10;0.10;;;4.10;99.90;;;;;;5055683;28;20573;-78
2023/11/18 05:29:27;;;;;;;0.10;0.10;;;4.30;99.90;;;;;;5055235;28;20356;-78
2023/11/18 05:31:54;;;;;;;0.10;0.10;;;4.40;99.90;;;;;;5058615;28;20234;-78
2023/11/18 05:34:20;;;;;;;0.10;0.10;;;4.50;99.90;;;;;;5060761;28;20187;-79
2023/11/18 05:36:54;;;;;;;0.10;0.10;;;4.70;99.90;;;;;;5058487;28;20177;-78
2023/11/18 05:39:21;;;;;;;0.10;0.10;;;4.90;99.90;;;;;;5058940;28;20676;-79
2023/11/18 05:41:49;;;;;;;0.00;0.00;;;5.10;99.90;;;;;;5060999;28;21050;-79
2023/11/18 05:44:19;;;;;;;0.00;0.00;;;5.30;99.90;;;;;;5057936;28;20201;-79
2023/11/18 05:46:47;;;;;;;0.10;0.10;;;5.40;99.90;;;;;;5057293;28;20169;-79
2023/11/18 05:49:13;;;;;;;0.10;0.10;;;5.40;99.90;;;;;;5060168;28;20183;-79
2023/11/18 05:51:42;;;;;;;0.03;0.03;;;5.40;99.90;;;;;;5061550;28;20210;-79
2023/11/18 05:54:08;;;;;;;0.10;0.10;;;5.20;99.90;;;;;;5062852;28;20226;-79
2023/11/18 05:56:34;;;;;;;0.00;0.00;;;5.20;99.90;;;;;;5061601;28;20223;-79
2023/11/18 05:59:02;;;;;;;0.10;0.10;;;5.20;99.90;;;;;;5060738;28;20245;-79
2023/11/18 06:01:29;;;;;;;0.10;0.10;;;5.10;99.90;;;;;;5061639;28;20191;-79
2023/11/18 06:03:56;;;;;;;0.00;0.00;;;4.80;99.90;;;;;;5059495;28;20261;-78
2023/11/18 06:06:22;;;;;;;0.10;0.10;;;4.80;99.90;;;;;;5057244;28;20177;-78
2023/11/18 06:08:48;;;;;;;0.00;0.00;;;5.00;99.90;;;;;;5060375;28;20278;-79
2023/11/18 06:11:15;;;;;;;0.10;0.10;;;5.20;99.90;;;;;;5058399;28;20189;-79
2023/11/18 06:13:59;;;;;;;0.10;0.10;;;5.40;99.90;;;;;;5058276;28;20218;-78
2023/11/18 06:16:26;;;;;;;0.10;0.10;;;5.60;99.90;;;;;;5054971;28;20181;-79
2023/11/18 06:18:54;;;;;;;0.10;0.10;;;5.70;99.90;;;;;;5056978;28;20210;-79
2023/11/18 06:21:24;;;;;;;0.10;0.10;;;5.70;99.90;;;;;;5060239;28;20185;-79
2023/11/18 06:23:50;;;;;;;0.10;0.10;;;5.80;99.90;;;;;;5056898;28;20193;-79
2023/11/18 06:26:16;;;;;;;0.10;0.10;;;5.80;99.90;;;;;;5058226;28;20265;-79
2023/11/18 06:28:43;;;;;;;0.10;0.10;;;5.80;99.90;;;;;;5055844;28;20726;-80
2023/11/18 06:31:09;;;;;;;0.10;0.10;;;5.80;99.90;;;;;;5059938;28;20274;-79
2023/11/18 06:33:45;;;;;;;0.10;0.10;;;5.80;99.90;;;;;;5058685;28;20187;-79
2023/11/18 06:36:13;;;;;;;0.00;0.00;;;5.70;99.90;;;;;;5060415;28;20176;-78
2023/11/18 06:38:40;;;;;;;0.10;0.10;;;5.30;99.90;;;;;;5060279;28;20211;-78
2023/11/18 06:41:08;;;;;;;0.00;0.00;;;5.30;99.90;;;;;;5059283;28;20182;-79
2023/11/18 06:43:51;;;;;;;0.10;0.10;;;5.40;99.90;;;;;;5060951;28;20227;-78
2023/11/18 06:46:20;;;;;;;0.00;0.00;;;5.60;99.90;;;;;;5062272;28;20885;-79
2023/11/18 06:48:48;;;;;;;0.10;0.10;;;5.80;99.90;;;;;;5062252;28;20888;-79
2023/11/18 06:51:15;;;;;;;0.10;0.10;;;5.10;99.90;;;;;;5057609;28;20209;-79
2023/11/18 06:53:40;;;;;;;0.10;0.10;;;4.80;99.90;;;;;;5058652;28;20187;-79
2023/11/18 06:56:06;;;;;;;0.10;0.10;;;4.60;99.90;;;;;;5059052;28;20255;-79
2023/11/18 06:58:32;;;;;;;0.00;0.00;;;4.70;99.90;;;;;;5059216;28;20211;-80
2023/11/18 07:00:57;;;;;;;0.10;0.10;;;4.90;99.90;;;;;;5061050;28;20183;-79
2023/11/18 07:03:23;;;;;;;0.10;0.10;;;5.10;99.90;;;;;;5059783;28;20592;-79
2023/11/18 07:05:49;;;;;;;0.10;0.10;;;5.20;99.90;;;;;;5060845;28;20207;-79
2023/11/18 07:08:14;;;;;;;0.00;0.00;;;5.30;99.90;;;;;;5058844;28;20271;-79
2023/11/18 07:10:40;;;;;;;0.00;0.00;;;5.40;99.90;;;;;;5060307;28;20221;-80
2023/11/18 07:13:08;;;;;;;0.00;0.00;;;5.40;99.90;;;;;;5058430;28;20683;-79
2023/11/18 07:15:35;;;;;;;0.10;0.10;;;5.20;99.90;;;;;;5053821;28;20214;-79
2023/11/18 07:18:01;;;;;;;0.00;0.00;;;5.30;99.90;;;;;;5056197;28;20781;-80
2023/11/18 07:20:27;;;;;;;0.10;0.10;;;5.50;99.90;;;;;;5058858;28;20189;-79
2023/11/18 07:22:52;;;;;;;0.10;0.10;;;5.60;99.90;;;;;;5055072;28;20245;-78
2023/11/18 07:25:18;;;;;;;0.10;0.10;;;5.80;99.90;;;;;;5058777;28;20188;-78
2023/11/18 07:27:44;;;;;;;0.10;0.10;;;5.80;99.90;;;;;;5053896;28;20210;-79
2023/11/18 07:30:10;;;;;;;0.10;0.10;;;5.90;99.90;;;;;;5058925;28;20214;-80
2023/11/18 07:32:36;;;;;;;0.10;0.10;;;6.00;99.90;;;;;;5054116;28;20214;-79
2023/11/18 07:35:02;;;;;;;0.10;0.10;;;6.00;99.90;;;;;;5057025;28;20225;-78
2023/11/18 07:37:28;;;;;;;0.10;0.10;;;6.10;99.90;;;;;;5057414;28;20216;-78
2023/11/18 07:39:55;;;;;;;0.10;0.10;;;5.80;99.90;;;;;;5058718;28;20837;-78
2023/11/18 07:42:20;;;;;;;0.10;0.10;;;5.70;99.90;;;;;;5059296;28;20190;-78
2023/11/18 07:44:48;;;;;;;0.10;0.10;;;5.90;99.90;;;;;;5056883;28;20189;-78
2023/11/18 07:47:16;;;;;;;0.10;0.10;;;5.80;99.90;;;;;;5060397;28;20730;-78
2023/11/18 07:49:41;;;;;;;0.07;0.07;;;5.70;99.90;;;;;;5058481;28;20181;-78
2023/11/18 07:52:07;;;;;;;0.10;0.10;;;5.80;99.90;;;;;;5059103;28;20238;-78
2023/11/18 07:54:33;;;;;;;0.10;0.10;;;6.00;99.90;;;;;;5061025;28;20213;-78
2023/11/18 07:56:59;;;;;;;0.10;0.10;;;6.20;99.90;;;;;;5060921;28;20285;-77
2023/11/18 07:59:24;;;;;;;0.10;0.10;;;6.20;99.90;;;;;;5061070;28;20289;-77
2023/11/18 08:01:50;;;;;;;0.10;0.10;;;6.20;99.90;;;;;;5059142;28;20173;-77
2023/11/18 08:04:16;;;;;;;0.00;0.00;;;6.30;99.90;;;;;;5058874;28;20618;-77
2023/11/18 08:06:43;;;;;;;0.10;0.10;;;6.50;99.90;;;;;;5056783;28;20179;-77
2023/11/18 08:09:14;;;;;;;0.00;0.00;;;6.50;99.90;;;;;;5061011;28;20599;-77
2023/11/18 08:11:41;;;;;;;0.00;0.00;;;6.40;99.90;;;;;;5059604;28;20174;-77
2023/11/18 08:14:10;;;;;;;0.10;0.10;;;6.40;99.90;;;;;;5058543;28;20549;-77
2023/11/18 08:16:35;;;;;;;0.00;0.00;;;6.50;99.90;;;;;;5058350;28;20199;-77
2023/11/18 08:19:02;;;;;;;0.00;0.00;;;6.50;99.90;;;;;;5056318;28;20207;-77
2023/11/18 08:21:28;;;;;;;0.00;0.00;;;6.60;99.90;;;;;;5055525;28;20282;-78
2023/11/18 08:23:54;;;;;;;0.10;0.10;;;6.70;99.90;;;;;;5052945;28;20423;-77
2023/11/18 08:26:20;;;;;;;0.10;0.10;;;6.50;99.90;;;;;;5053395;28;20188;-78
2023/11/18 08:28:45;;;;;;;0.00;0.00;;;6.40;99.90;;;;;;5056043;28;20244;-79
2023/11/18 08:31:15;;;;;;;0.10;0.10;;;6.30;99.90;;;;;;5056924;28;20228;-78
2023/11/18 08:33:42;;;;;;;0.10;0.10;;;6.40;99.90;;;;;;5058738;28;20170;-77
2023/11/18 08:36:08;;;;;;;0.10;0.10;;;6.20;99.90;;;;;;5056814;28;20265;-78
2023/11/18 08:38:34;;;;;;;0.10;0.10;;;5.50;99.90;;;;;;5055189;28;20269;-78
2023/11/18 08:41:00;;;;;;;0.03;0.03;;;5.20;99.90;;;;;;5056637;28;20558;-78
2023/11/18 08:43:28;;;;;;;0.10;0.10;;;5.30;99.90;;;;;;5054779;28;20182;-80
2023/11/18 08:45:54;;;;;;;0.10;0.10;;;5.60;99.90;;;;;;5055955;28;20199;-79
2023/11/18 08:48:20;;;;;;;0.10;0.10;;;5.90;99.90;;;;;;5055264;28;20705;-78
2023/11/18 08:50:46;;;;;;;0.00;0.00;;;5.80;99.90;;;;;;5059586;28;20193;-78
2023/11/18 08:53:12;;;;;;;0.10;0.10;;;5.90;99.90;;;;;;5044516;28;20217;-78
2023/11/18 08:55:41;;;;;;;0.10;0.10;;;5.80;99.90;;;;;;5048705;28;20185;-77
2023/11/18 08:58:27;;;;;;;0.00;0.00;;;6.00;99.90;;;;;;5057216;28;20202;-78
2023/11/18 09:00:54;;;;;;;0.10;0.10;;;5.90;99.90;;;;;;5054030;28;20183;-78
2023/11/18 09:03:25;;;;;;;0.00;0.00;;;6.00;99.90;;;;;;5054534;28;20559;-78
2023/11/18 09:05:58;;;;;;;0.00;0.00;;;5.90;99.90;;;;;;5055095;28;20194;-78
2023/11/18 09:08:29;;;;;;;0.10;0.10;;;5.80;99.90;;;;;;5055401;28;20213;-78
2023/11/18 09:10:55;;;;;;;0.10;0.10;;;5.60;99.90;;;;;;5051038;28;20298;-78
2023/11/18 09:13:31;;;;;;;0.00;0.00;;;5.60;99.90;;;;;;5058055;28;20287;-78
2023/11/18 09:16:00;;;;;;;1.50;1.50;;;5.40;99.90;;;;;;5055049;28;20468;-78
2023/11/18 09:18:27;;;;;;;0.10;0.10;;;5.40;99.90;;;;;;5054333;28;20217;-78
2023/11/18 09:20:54;;;;;;;0.03;0.03;;;5.30;99.90;;;;;;5057116;28;20213;-78
2023/11/18 09:23:23;;;;;;;0.10;0.10;;;5.30;99.90;;;;;;5055975;28;20645;-78
2023/11/18 09:25:49;;;;;;;0.00;0.00;;;5.30;99.90;;;;;;5055333;28;20247;-78
2023/11/18 09:28:15;;;;;;;0.10;0.10;;;5.30;99.90;;;;;;5057636;28;20221;-78
2023/11/18 09:31:03;;;;;;;0.00;0.00;;;5.60;99.90;;;;;;5050882;28;20191;-78
2023/11/18 09:33:33;;;;;;;0.00;0.00;;;6.00;99.90;;;;;;5055578;28;20202;-79
2023/11/18 09:35:59;;;;;;;0.00;0.00;;;5.90;99.90;;;;;;5054706;28;20183;-79
2023/11/18 09:38:35;;;;;;;0.10;0.10;;;5.90;99.90;;;;;;5057374;28;20302;-79
2023/11/18 09:41:07;;;;;;;0.10;0.10;;;5.80;99.90;;;;;;5052785;28;20187;-77
2023/11/18 09:43:45;;;;;;;0.10;0.10;;;5.70;99.90;;;;;;5050353;28;20184;-77
2023/11/18 09:46:14;;;;;;;0.00;0.00;;;5.80;99.90;;;;;;5072192;28;20183;-78
2023/11/18 09:48:52;;;;;;;0.10;0.10;;;6.20;99.90;;;;;;5053516;28;20212;-78
2023/11/18 09:51:21;;;;;;;0.00;0.00;;;6.40;99.90;;;;;;5055938;28;20585;-79
2023/11/18 09:53:50;;;;;;;0.00;0.00;;;6.20;99.90;;;;;;5056185;28;20679;-79
2023/11/18 09:56:57;;;;;;;0.10;0.10;;;6.40;99.90;;;;;;5055779;28;20182;-78
2023/11/18 09:59:34;;;;;;;0.10;0.10;;;6.60;99.90;;;;;;5036743;28;20229;-78
2023/11/18 10:02:02;;;;;;;0.10;0.10;;;6.70;99.90;;;;;;5057872;28;20191;-78
2023/11/18 10:04:28;;;;;;;0.10;0.10;;;6.90;99.90;;;;;;5058315;28;20180;-78
2023/11/18 10:06:56;;;;;;;0.10;0.10;;;6.60;99.90;;;;;;5055990;28;20189;-77
2023/11/18 10:09:37;;;;;;;0.10;0.10;;;6.50;99.90;;;;;;5053452;28;20184;-78
2023/11/18 10:12:06;;;;;;;0.10;0.10;;;6.70;99.90;;;;;;5051996;28;20181;-78
2023/11/18 10:14:36;;;;;;;0.07;0.07;;;6.90;99.90;;;;;;5054512;28;20199;-78
2023/11/18 10:17:07;;;;;;;0.10;0.10;;;7.00;99.90;;;;;;5055337;28;20880;-78
2023/11/18 10:19:56;;;;;;;0.10;0.10;;;7.00;99.90;;;;;;5059654;28;20244;-77
2023/11/18 10:22:25;;;;;;;0.10;0.10;;;6.90;99.90;;;;;;5060608;28;20244;-77
2023/11/18 10:24:54;;;;;;;0.00;0.00;;;6.80;99.90;;;;;;5061595;28;20177;-78
2023/11/18 10:27:26;;;;;;;0.10;0.10;;;6.80;99.90;;;;;;5059430;28;20229;-78
2023/11/18 10:30:02;;;;;;;0.10;0.10;;;6.70;99.90;;;;;;5059958;28;20212;-78
2023/11/18 10:32:28;;;;;;;0.00;0.00;;;6.70;99.90;;;;;;5061071;28;20191;-78
2023/11/18 10:34:56;;;;;;;0.10;0.10;;;6.60;99.90;;;;;;5057875;28;20199;-77
2023/11/18 10:37:22;;;;;;;0.10;0.10;;;6.90;99.90;;;;;;5060033;28;20280;-79
2023/11/18 10:39:51;;;;;;;0.00;0.00;;;7.00;99.90;;;;;;5058293;28;20334;-79
2023/11/18 10:42:19;;;;;;;0.10;0.10;;;6.90;99.90;;;;;;5059422;28;20170;-79
2023/11/18 10:44:57;;;;;;;0.00;0.00;;;6.90;99.90;;;;;;5060125;28;20180;-79
2023/11/18 10:47:25;;;;;;;0.07;0.07;;;6.90;99.90;;;;;;5059738;28;20200;-81
2023/11/18 10:49:51;;;;;;;0.10;0.10;;;7.10;99.90;;;;;;5058772;28;20656;-79
2023/11/18 10:52:17;;;;;;;0.00;0.00;;;7.30;99.90;;;;;;5056579;28;20199;-79
2023/11/18 10:54:55;;;;;;;0.10;0.10;;;7.50;99.90;;;;;;5054312;28;20188;-78
2023/11/18 10:57:22;;;;;;;0.10;0.10;;;7.40;99.90;;;;;;5057533;28;20208;-78
2023/11/18 11:00:14;;;;;;;0.10;0.10;;;7.30;99.90;;;;;;5059161;28;20215;-78
2023/11/18 11:02:41;;;;;;;0.00;0.00;;;7.40;99.90;;;;;;5056974;28;20218;-78
2023/11/18 11:05:15;;;;;;;0.10;0.10;;;7.40;99.90;;;;;;5056494;28;20185;-78
2023/11/18 11:07:42;;;;;;;0.10;0.10;;;7.40;99.90;;;;;;5054281;28;20198;-78
2023/11/18 11:10:10;;;;;;;0.10;0.10;;;7.30;99.90;;;;;;5053411;28;20187;-78
2023/11/18 11:12:51;;;;;;;0.10;0.10;;;7.30;99.90;;;;;;5056762;28;20186;-79
2023/11/18 11:15:28;;;;;;;0.10;0.10;;;7.10;99.90;;;;;;5057383;28;20180;-79
2023/11/18 11:18:08;;;;;;;0.07;0.07;;;7.10;99.90;;;;;;5059514;28;20251;-79
2023/11/18 11:20:41;;;;;;;0.10;0.10;;;7.20;99.90;;;;;;5059069;28;20727;-78
2023/11/18 11:23:44;;;;;;;0.10;0.10;;;7.10;99.90;;;;;;5058406;28;20556;-79
2023/11/18 11:26:13;;;;;;;0.10;0.10;;;7.20;99.90;;;;;;5057422;28;20228;-79
2023/11/18 11:29:17;;;;;;;0.10;0.10;;;7.30;99.90;;;;;;5056601;28;20209;-78
2023/11/18 11:31:47;;;;;;;0.10;0.10;;;7.50;99.90;;;;;;5059571;28;20179;-79
2023/11/18 11:34:20;;;;;;;0.10;0.10;;;7.50;99.90;;;;;;5055366;28;20177;-79
2023/11/18 11:36:51;;;;;;;0.10;0.10;;;7.50;99.90;;;;;;5058731;28;20180;-79
2023/11/18 11:39:17;;;;;;;0.10;0.10;;;7.40;99.90;;;;;;5059190;28;20216;-79
2023/11/18 11:41:50;;;;;;;0.10;0.10;;;7.30;99.90;;;;;;5056899;28;20191;-79
2023/11/18 11:44:19;;;;;;;0.10;0.10;;;7.20;99.90;;;;;;5058108;28;20367;-79
2023/11/18 11:46:52;;;;;;;0.10;0.10;;;7.40;99.90;;;;;;5057150;28;21242;-79
2023/11/18 11:49:20;;;;;;;0.10;0.10;;;7.60;99.90;;;;;;5053358;28;20181;-78
2023/11/18 11:51:53;;;;;;;0.10;0.10;;;7.50;99.90;;;;;;5056405;28;20277;-79
2023/11/18 11:54:28;;;;;;;0.10;0.10;;;7.60;99.90;;;;;;5058732;28;20552;-79
2023/11/18 11:56:59;;;;;;;0.10;0.10;;;7.70;99.90;;;;;;5056213;28;20169;-79
2023/11/18 11:59:54;;;;;;;0.10;0.10;;;7.90;99.90;;;;;;5060507;28;20202;-79
2023/11/18 12:02:28;;;;;;;0.10;0.10;;;8.00;99.90;;;;;;5059232;28;20203;-79
2023/11/18 12:04:58;;;;;;;0.00;0.00;;;8.10;99.90;;;;;;5060900;28;20181;-79
2023/11/18 12:07:27;;;;;;;0.10;0.10;;;8.10;99.90;;;;;;5052951;28;20260;-79
2023/11/18 12:09:57;;;;;;;0.10;0.10;;;8.10;99.90;;;;;;5056561;28;20174;-78
2023/11/18 12:12:27;;;;;;;0.10;0.10;;;8.20;99.90;;;;;;5056151;28;20181;-79
2023/11/18 12:15:00;;;;;;;0.10;0.10;;;8.10;99.90;;;;;;5054502;28;20292;-77
2023/11/18 12:17:31;;;;;;;0.10;0.10;;;8.20;99.90;;;;;;5050395;28;20221;-78
2023/11/18 12:20:06;;;;;;;0.10;0.10;;;8.10;99.90;;;;;;5054775;28;20187;-78
2023/11/18 12:23:17;;;;;;;0.10;0.10;;;8.20;99.90;;;;;;5057822;28;20686;-79
2023/11/18 12:25:49;;;;;;;0.10;0.10;;;8.20;99.90;;;;;;5057321;28;20189;-78
2023/11/18 12:28:21;;;;;;;0.10;0.10;;;8.30;99.90;;;;;;5056936;28;20212;-78
2023/11/18 12:30:51;;;;;;;0.10;0.10;;;8.20;99.90;;;;;;5060850;28;20173;-78
2023/11/18 12:33:18;;;;;;;0.10;0.10;;;8.20;99.90;;;;;;5057699;28;20301;-78
2023/11/18 12:36:01;;;;;;;0.10;0.10;;;8.20;99.90;;;;;;5057513;28;20197;-78
2023/11/18 12:38:48;;;;;;;0.10;0.10;;;8.10;99.90;;;;;;5057195;28;20265;-78
2023/11/18 12:41:39;;;;;;;0.00;0.00;;;8.20;99.90;;;;;;5055646;28;20184;-78
2023/11/18 12:44:31;;;;;;;0.10;0.10;;;8.10;99.90;;;;;;5054845;28;20698;-78
2023/11/18 12:47:18;;;;;;;0.00;0.00;;;8.30;99.90;;;;;;5056370;28;20177;-78
2023/11/18 12:49:44;;;;;;;0.10;0.10;;;8.30;99.90;;;;;;5057411;28;20188;-78
2023/11/18 12:52:14;;;;;;;0.10;0.10;;;8.30;99.90;;;;;;5055219;28;20186;-80
2023/11/18 12:54:43;;;;;;;0.10;0.10;;;8.40;99.90;;;;;;5050632;28;20497;-78
2023/11/18 12:57:10;;;;;;;0.00;0.00;;;8.40;99.90;;;;;;5052636;28;20209;-77
2023/11/18 12:59:37;;;;;;;0.10;0.10;;;8.50;99.90;;;;;;5049710;28;20258;-78
2023/11/18 13:02:07;;;;;;;0.10;0.10;;;8.50;99.90;;;;;;5052524;28;20182;-78
2023/11/18 13:04:40;;;;;;;0.10;0.10;;;8.40;99.90;;;;;;5052938;28;20187;-78
2023/11/18 13:07:08;;;;;;;0.10;0.10;;;8.50;99.90;;;;;;5053142;28;21218;-79